createdAt,value
2024-01-06T00:00:07.480Z,998.00
2024-01-06T00:01:07.502Z,998.07
2024-01-06T00:02:07.442Z,998.08
2024-01-06T00:03:07.537Z,998.08
2024-01-06T00:04:07.534Z,998.11
2024-01-06T00:05:07.423Z,998.11
2024-01-06T00:06:07.471Z,998.14
2024-01-06T00:07:07.381Z,998.14
2024-01-06T00:08:07.364Z,998.16
2024-01-06T00:09:07.455Z,998.18
2024-01-06T00:10:07.309Z,998.21
2024-01-06T00:11:07.359Z,998.18
2024-01-06T00:12:07.365Z,998.22
2024-01-06T00:13:07.305Z,998.19
2024-01-06T00:14:07.260Z,998.24
2024-01-06T00:15:07.356Z,998.26
2024-01-06T00:16:07.293Z,998.25
2024-01-06T00:17:07.264Z,998.25
2024-01-06T00:18:07.457Z,998.28
2024-01-06T00:19:07.411Z,998.31
2024-01-06T00:20:07.346Z,998.26
2024-01-06T00:21:07.292Z,998.30
2024-01-06T00:22:07.210Z,998.32
2024-01-06T00:23:07.189Z,998.30
2024-01-06T00:24:07.150Z,998.34
2024-01-06T00:25:07.154Z,998.35
2024-01-06T00:26:07.108Z,998.37
2024-01-06T00:27:07.252Z,998.35
2024-01-06T00:28:07.104Z,998.35
2024-01-06T00:29:07.068Z,998.34
2024-01-06T00:30:07.146Z,998.36
2024-01-06T00:31:07.204Z,998.34
2024-01-06T00:32:07.028Z,998.32
2024-01-06T00:33:07.202Z,998.32
2024-01-06T00:34:07.889Z,998.34
2024-01-06T00:35:07.057Z,998.35
2024-01-06T00:36:07.023Z,998.36
2024-01-06T00:37:06.953Z,998.33
2024-01-06T00:38:06.946Z,998.35
2024-01-06T00:39:07.028Z,998.38
2024-01-06T00:40:06.957Z,998.39
2024-01-06T00:41:06.895Z,998.36
2024-01-06T00:42:06.971Z,998.33
2024-01-06T00:43:06.870Z,998.37
2024-01-06T00:44:06.867Z,998.45
2024-01-06T00:45:07.038Z,998.44
2024-01-06T00:46:07.805Z,998.39
2024-01-06T00:47:06.861Z,998.44
2024-01-06T00:48:07.039Z,998.44
2024-01-06T00:49:07.821Z,998.42
2024-01-06T00:50:06.785Z,998.46
2024-01-06T00:51:07.115Z,998.47
2024-01-06T00:52:06.802Z,998.44
2024-01-06T00:53:06.771Z,998.48
2024-01-06T00:54:06.790Z,998.47
2024-01-06T00:55:06.758Z,998.44
2024-01-06T00:56:07.407Z,998.53
2024-01-06T00:57:06.762Z,998.53
2024-01-06T00:58:06.679Z,998.52
2024-01-06T00:59:06.666Z,998.57
2024-01-06T01:00:06.682Z,998.61
2024-01-06T01:01:06.771Z,998.57
2024-01-06T01:02:06.656Z,998.58
2024-01-06T01:03:06.650Z,998.58
2024-01-06T01:04:06.675Z,998.65
2024-01-06T01:05:06.633Z,998.62
2024-01-06T01:06:06.629Z,998.65
2024-01-06T01:07:06.597Z,998.66
2024-01-06T01:08:06.566Z,998.68
2024-01-06T01:09:06.634Z,998.64
2024-01-06T01:10:06.523Z,998.69
2024-01-06T01:11:06.522Z,998.67
2024-01-06T01:12:06.536Z,998.69
2024-01-06T01:13:06.488Z,998.79
2024-01-06T01:14:06.530Z,998.70
2024-01-06T01:15:06.523Z,998.77
2024-01-06T01:16:06.436Z,998.76
2024-01-06T01:17:06.437Z,998.78
2024-01-06T01:18:06.729Z,998.80
2024-01-06T01:19:06.499Z,998.80
2024-01-06T01:20:06.425Z,998.83
2024-01-06T01:21:06.573Z,998.83
2024-01-06T01:22:06.387Z,998.89
2024-01-06T01:23:06.349Z,998.88
2024-01-06T01:24:06.403Z,998.94
2024-01-06T01:25:06.362Z,998.94
2024-01-06T01:26:06.363Z,998.94
2024-01-06T01:27:06.421Z,998.97
2024-01-06T01:28:06.293Z,998.90
2024-01-06T01:29:06.286Z,998.96
2024-01-06T01:30:06.313Z,998.98
2024-01-06T01:31:06.550Z,998.99
2024-01-06T01:32:06.361Z,999.03
2024-01-06T01:33:06.368Z,999.07
2024-01-06T01:34:06.307Z,999.06
2024-01-06T01:35:06.198Z,999.07
2024-01-06T01:36:06.292Z,999.08
2024-01-06T01:37:06.187Z,999.09
2024-01-06T01:38:06.178Z,999.13
2024-01-06T01:39:06.192Z,999.14
2024-01-06T01:40:06.145Z,999.09
2024-01-06T01:41:06.107Z,999.14
2024-01-06T01:42:06.255Z,999.16
2024-01-06T01:43:06.077Z,999.13
2024-01-06T01:44:06.095Z,999.14
2024-01-06T01:45:06.120Z,999.17
2024-01-06T01:46:06.038Z,999.20
2024-01-06T01:47:06.048Z,999.12
2024-01-06T01:48:06.196Z,999.17
2024-01-06T01:49:06.131Z,999.23
2024-01-06T01:50:06.030Z,999.18
2024-01-06T01:51:05.996Z,999.16
2024-01-06T01:52:05.990Z,999.20
2024-01-06T01:53:05.949Z,999.20
2024-01-06T01:54:05.961Z,999.20
2024-01-06T01:55:05.945Z,999.20
2024-01-06T01:56:05.941Z,999.17
2024-01-06T01:57:05.957Z,999.19
2024-01-06T01:58:05.883Z,999.25
2024-01-06T01:59:05.899Z,999.22
2024-01-06T02:00:05.861Z,999.21
2024-01-06T02:01:05.963Z,999.26
2024-01-06T02:02:05.854Z,999.22
2024-01-06T02:03:05.903Z,999.28
2024-01-06T02:04:05.987Z,999.29
2024-01-06T02:05:05.882Z,999.31
2024-01-06T02:06:05.803Z,999.34
2024-01-06T02:07:05.785Z,999.32
2024-01-06T02:08:05.772Z,999.30
2024-01-06T02:09:05.753Z,999.35
2024-01-06T02:10:05.726Z,999.37
2024-01-06T02:11:05.705Z,999.33
2024-01-06T02:12:05.717Z,999.35
2024-01-06T02:13:05.708Z,999.33
2024-01-06T02:14:05.668Z,999.36
2024-01-06T02:15:05.708Z,999.37
2024-01-06T02:16:05.674Z,999.37
2024-01-06T02:17:05.634Z,999.38
2024-01-06T02:18:05.740Z,999.40
2024-01-06T02:19:05.672Z,999.36
2024-01-06T02:20:05.620Z,999.39
2024-01-06T02:21:05.645Z,999.36
2024-01-06T02:22:05.589Z,999.37
2024-01-06T02:23:05.553Z,999.39
2024-01-06T02:24:05.543Z,999.39
2024-01-06T02:25:05.536Z,999.41
2024-01-06T02:26:05.536Z,999.40
2024-01-06T02:27:05.597Z,999.37
2024-01-06T02:28:05.471Z,999.40
2024-01-06T02:29:05.456Z,999.43
2024-01-06T02:30:05.492Z,999.41
2024-01-06T02:31:05.819Z,999.45
2024-01-06T02:32:05.451Z,999.46
2024-01-06T02:33:05.519Z,999.50
2024-01-06T02:34:05.499Z,999.45
2024-01-06T02:35:05.401Z,999.45
2024-01-06T02:36:05.377Z,999.45
2024-01-06T02:37:05.389Z,999.46
2024-01-06T02:38:05.341Z,999.44
2024-01-06T02:39:05.372Z,999.39
2024-01-06T02:40:05.316Z,999.46
2024-01-06T02:41:05.294Z,999.47
2024-01-06T02:42:05.312Z,999.46
2024-01-06T02:43:05.296Z,999.52
2024-01-06T02:44:05.323Z,999.50
2024-01-06T02:45:05.337Z,999.47
2024-01-06T02:46:05.281Z,999.55
2024-01-06T02:47:05.247Z,999.53
2024-01-06T02:48:05.315Z,999.53
2024-01-06T02:49:05.337Z,999.53
2024-01-06T02:50:05.302Z,999.53
2024-01-06T02:51:05.226Z,999.55
2024-01-06T02:52:05.197Z,999.58
2024-01-06T02:53:05.136Z,999.60
2024-01-06T02:54:05.158Z,999.59
2024-01-06T02:55:05.186Z,999.61
2024-01-06T02:56:05.097Z,999.65
2024-01-06T02:57:05.111Z,999.64
2024-01-06T02:58:05.085Z,999.68
2024-01-06T02:59:05.058Z,999.70
2024-01-06T03:00:06.006Z,999.69
2024-01-06T03:01:05.261Z,999.72
2024-01-06T03:02:05.117Z,999.75
2024-01-06T03:03:05.123Z,999.74
2024-01-06T03:04:05.415Z,999.76
2024-01-06T03:05:05.017Z,999.77
2024-01-06T03:06:04.992Z,999.77
2024-01-06T03:07:04.986Z,999.79
2024-01-06T03:08:04.943Z,999.81
2024-01-06T03:09:04.989Z,999.84
2024-01-06T03:10:04.944Z,999.86
2024-01-06T03:11:04.930Z,999.87
2024-01-06T03:12:04.911Z,999.88
2024-01-06T03:13:04.876Z,999.89
2024-01-06T03:14:04.906Z,999.92
2024-01-06T03:15:04.917Z,999.96
2024-01-06T03:16:04.837Z,999.98
2024-01-06T03:17:04.821Z,999.99
2024-01-06T03:18:04.963Z,999.99
2024-01-06T03:19:04.933Z,1000.00
2024-01-06T03:20:04.795Z,1000.04
2024-01-06T03:21:04.999Z,1000.05
2024-01-06T03:22:04.786Z,1000.03
2024-01-06T03:23:05.453Z,1000.11
2024-01-06T03:24:04.739Z,1000.15
2024-01-06T03:25:04.743Z,1000.15
2024-01-06T03:26:04.707Z,1000.15
2024-01-06T03:27:04.741Z,1000.16
2024-01-06T03:28:04.675Z,1000.22
2024-01-06T03:29:04.754Z,1000.21
2024-01-06T03:30:04.873Z,1000.21
2024-01-06T03:31:04.736Z,1000.26
2024-01-06T03:32:04.668Z,1000.29
2024-01-06T03:33:04.774Z,1000.24
2024-01-06T03:34:04.766Z,1000.27
2024-01-06T03:35:04.615Z,1000.31
2024-01-06T03:36:04.586Z,1000.32
2024-01-06T03:37:04.583Z,1000.35
2024-01-06T03:38:04.561Z,1000.33
2024-01-06T03:39:04.613Z,1000.37
2024-01-06T03:40:04.525Z,1000.35
2024-01-06T03:41:05.437Z,1000.34
2024-01-06T03:42:04.547Z,1000.38
2024-01-06T03:43:04.479Z,1000.38
2024-01-06T03:44:04.502Z,1000.36
2024-01-06T03:45:04.515Z,1000.40
2024-01-06T03:46:04.448Z,1000.40
2024-01-06T03:47:04.466Z,1000.44
2024-01-06T03:48:04.566Z,1000.40
2024-01-06T03:49:04.590Z,1000.43
2024-01-06T03:50:04.421Z,1000.43
2024-01-06T03:51:04.470Z,1000.48
2024-01-06T03:52:04.425Z,1000.52
2024-01-06T03:53:04.350Z,1000.54
2024-01-06T03:54:04.371Z,1000.59
2024-01-06T03:55:04.325Z,1000.57
2024-01-06T03:56:05.001Z,1000.55
2024-01-06T03:57:04.363Z,1000.57
2024-01-06T03:58:04.289Z,1000.53
2024-01-06T03:59:04.290Z,1000.55
2024-01-06T04:00:04.275Z,1000.55
2024-01-06T04:01:04.549Z,1000.55
2024-01-06T04:02:04.267Z,1000.53
2024-01-06T04:03:04.353Z,1000.55
2024-01-06T04:04:04.389Z,1000.57
2024-01-06T04:05:04.188Z,1000.52
2024-01-06T04:06:04.252Z,1000.54
2024-01-06T04:07:04.187Z,1000.56
2024-01-06T04:08:04.181Z,1000.55
2024-01-06T04:09:04.242Z,1000.55
2024-01-06T04:10:04.165Z,1000.58
2024-01-06T04:11:04.110Z,1000.57
2024-01-06T04:12:04.125Z,1000.61
2024-01-06T04:13:04.086Z,1000.70
2024-01-06T04:14:04.099Z,1000.66
2024-01-06T04:15:04.113Z,1000.70
2024-01-06T04:16:04.134Z,1000.73
2024-01-06T04:17:04.059Z,1000.71
2024-01-06T04:18:04.130Z,1000.75
2024-01-06T04:19:04.142Z,1000.77
2024-01-06T04:20:04.698Z,1000.79
2024-01-06T04:21:04.012Z,1000.79
2024-01-06T04:22:04.006Z,1000.77
2024-01-06T04:23:03.970Z,1000.78
2024-01-06T04:24:03.984Z,1000.80
2024-01-06T04:25:03.972Z,1000.78
2024-01-06T04:26:03.943Z,1000.85
2024-01-06T04:27:03.983Z,1000.80
2024-01-06T04:28:03.901Z,1000.81
2024-01-06T04:29:03.899Z,1000.83
2024-01-06T04:30:04.991Z,1000.82
2024-01-06T04:31:04.009Z,1000.86
2024-01-06T04:32:03.858Z,1000.86
2024-01-06T04:33:03.933Z,1000.84
2024-01-06T04:34:03.983Z,1000.89
2024-01-06T04:35:03.787Z,1000.96
2024-01-06T04:36:03.797Z,1000.95
2024-01-06T04:37:03.816Z,1000.92
2024-01-06T04:38:03.752Z,1000.90
2024-01-06T04:39:03.784Z,1000.97
2024-01-06T04:40:03.754Z,1000.92
2024-01-06T04:41:03.769Z,1000.95
2024-01-06T04:42:03.699Z,1000.97
2024-01-06T04:43:03.722Z,1001.01
2024-01-06T04:44:03.705Z,1001.03
2024-01-06T04:45:04.761Z,1001.03
2024-01-06T04:46:03.667Z,1001.05
2024-01-06T04:47:03.661Z,1001.06
2024-01-06T04:48:03.798Z,1001.07
2024-01-06T04:49:04.681Z,1001.12
2024-01-06T04:50:03.595Z,1001.16
2024-01-06T04:51:03.626Z,1001.12
2024-01-06T04:52:03.576Z,1001.13
2024-01-06T04:53:04.257Z,1001.16
2024-01-06T04:54:03.569Z,1001.21
2024-01-06T04:55:03.545Z,1001.22
2024-01-06T04:56:03.533Z,1001.22
2024-01-06T04:57:03.669Z,1001.21
2024-01-06T04:58:03.491Z,1001.28
2024-01-06T04:59:03.493Z,1001.29
2024-01-06T05:00:03.503Z,1001.30
2024-01-06T05:01:03.761Z,1001.32
2024-01-06T05:02:03.457Z,1001.30
2024-01-06T05:03:03.581Z,1001.33
2024-01-06T05:04:03.645Z,1001.34
2024-01-06T05:05:03.448Z,1001.35
2024-01-06T05:06:03.431Z,1001.35
2024-01-06T05:07:03.397Z,1001.37
2024-01-06T05:08:03.362Z,1001.38
2024-01-06T05:09:03.431Z,1001.38
2024-01-06T05:10:03.336Z,1001.43
2024-01-06T05:11:03.372Z,1001.40
2024-01-06T05:12:03.330Z,1001.47
2024-01-06T05:13:03.322Z,1001.42
2024-01-06T05:14:03.320Z,1001.44
2024-01-06T05:15:03.314Z,1001.47
2024-01-06T05:16:03.351Z,1001.47
2024-01-06T05:17:03.266Z,1001.53
2024-01-06T05:18:03.353Z,1001.51
2024-01-06T05:19:03.411Z,1001.53
2024-01-06T05:20:03.203Z,1001.55
2024-01-06T05:21:03.214Z,1001.59
2024-01-06T05:22:03.184Z,1001.54
2024-01-06T05:23:03.167Z,1001.56
2024-01-06T05:24:03.186Z,1001.54
2024-01-06T05:25:03.144Z,1001.56
2024-01-06T05:26:03.138Z,1001.55
2024-01-06T05:27:03.266Z,1001.57
2024-01-06T05:28:03.160Z,1001.58
2024-01-06T05:29:03.118Z,1001.57
2024-01-06T05:30:03.112Z,1001.60
2024-01-06T05:31:03.261Z,1001.59
2024-01-06T05:32:03.063Z,1001.63
2024-01-06T05:33:03.157Z,1001.62
2024-01-06T05:34:03.168Z,1001.63
2024-01-06T05:35:03.175Z,1001.63
2024-01-06T05:36:03.018Z,1001.67
2024-01-06T05:37:03.055Z,1001.64
2024-01-06T05:38:02.978Z,1001.69
2024-01-06T05:39:03.016Z,1001.67
2024-01-06T05:40:02.953Z,1001.66
2024-01-06T05:41:02.962Z,1001.69
2024-01-06T05:42:02.945Z,1001.69
2024-01-06T05:43:02.947Z,1001.70
2024-01-06T05:44:02.897Z,1001.71
2024-01-06T05:45:03.047Z,1001.79
2024-01-06T05:46:03.013Z,1001.79
2024-01-06T05:47:02.859Z,1001.81
2024-01-06T05:48:03.009Z,1001.80
2024-01-06T05:49:02.928Z,1001.80
2024-01-06T05:50:02.849Z,1001.87
2024-01-06T05:51:02.921Z,1001.85
2024-01-06T05:52:02.811Z,1001.87
2024-01-06T05:53:03.746Z,1001.90
2024-01-06T05:54:02.766Z,1001.90
2024-01-06T05:55:02.757Z,1001.92
2024-01-06T05:56:02.762Z,1001.93
2024-01-06T05:57:02.758Z,1001.96
2024-01-06T05:58:02.714Z,1001.98
2024-01-06T05:59:02.718Z,1002.02
2024-01-06T06:00:02.676Z,1002.01
2024-01-06T06:01:02.921Z,1002.00
2024-01-06T06:02:02.714Z,1002.05
2024-01-06T06:03:02.714Z,1002.04
2024-01-06T06:04:02.760Z,1002.05
2024-01-06T06:05:02.680Z,1002.07
2024-01-06T06:06:02.665Z,1002.06
2024-01-06T06:07:02.945Z,1002.12
2024-01-06T06:08:02.573Z,1002.17
2024-01-06T06:09:02.615Z,1002.22
2024-01-06T06:10:02.760Z,1002.23
2024-01-06T06:11:03.210Z,1002.18
2024-01-06T06:12:02.641Z,1002.30
2024-01-06T06:13:02.537Z,1002.32
2024-01-06T06:14:02.506Z,1002.31
2024-01-06T06:15:02.555Z,1002.32
2024-01-06T06:16:02.493Z,1002.32
2024-01-06T06:17:02.489Z,1002.35
2024-01-06T06:18:03.529Z,1002.37
2024-01-06T06:19:02.535Z,1002.35
2024-01-06T06:20:03.346Z,1002.39
2024-01-06T06:21:02.506Z,1002.38
2024-01-06T06:23:02.450Z,1002.41
2024-01-06T06:24:02.427Z,1002.45
2024-01-06T06:25:02.445Z,1002.42
2024-01-06T06:26:02.353Z,1002.46
2024-01-06T06:27:02.428Z,1002.48
2024-01-06T06:28:02.433Z,1002.50
2024-01-06T06:29:02.337Z,1002.52
2024-01-06T06:30:02.489Z,1002.45
2024-01-06T06:31:02.484Z,1002.52
2024-01-06T06:32:02.963Z,1002.55
2024-01-06T06:33:02.518Z,1002.60
2024-01-06T06:34:05.254Z,1002.62
2024-01-06T06:35:03.220Z,1002.59
2024-01-06T06:36:02.309Z,1002.63
2024-01-06T06:37:02.313Z,1002.61
2024-01-06T06:38:02.367Z,1002.69
2024-01-06T06:39:02.296Z,1002.70
2024-01-06T06:40:02.309Z,1002.68
2024-01-06T06:41:02.179Z,1002.70
2024-01-06T06:42:02.147Z,1002.76
2024-01-06T06:43:02.110Z,1002.81
2024-01-06T06:44:02.142Z,1002.78
2024-01-06T06:45:02.158Z,1002.81
2024-01-06T06:46:03.083Z,1002.82
2024-01-06T06:47:02.098Z,1002.83
2024-01-06T06:48:02.114Z,1002.85
2024-01-06T06:49:02.395Z,1002.87
2024-01-06T06:50:02.215Z,1002.91
2024-01-06T06:51:02.091Z,1002.92
2024-01-06T06:52:02.040Z,1002.91
2024-01-06T06:53:01.997Z,1002.91
2024-01-06T06:54:01.983Z,1002.94
2024-01-06T06:55:01.979Z,1002.95
2024-01-06T06:56:01.960Z,1003.00
2024-01-06T06:57:01.982Z,1003.06
2024-01-06T06:58:01.920Z,1003.07
2024-01-06T06:59:01.945Z,1003.06
2024-01-06T07:00:01.973Z,1003.12
2024-01-06T07:01:02.065Z,1003.10
2024-01-06T07:02:01.970Z,1003.16
2024-01-06T07:03:02.120Z,1003.13
2024-01-06T07:04:01.874Z,1003.15
2024-01-06T07:05:01.895Z,1003.16
2024-01-06T07:06:01.894Z,1003.19
2024-01-06T07:07:01.857Z,1003.20
2024-01-06T07:08:01.776Z,1003.24
2024-01-06T07:09:01.830Z,1003.21
2024-01-06T07:10:01.827Z,1003.25
2024-01-06T07:11:01.886Z,1003.27
2024-01-06T07:12:01.729Z,1003.22
2024-01-06T07:13:02.717Z,1003.33
2024-01-06T07:14:01.708Z,1003.31
2024-01-06T07:15:03.102Z,1003.33
2024-01-06T07:16:11.809Z,1003.40
2024-01-06T07:17:02.738Z,1003.32
2024-01-06T07:18:02.859Z,1003.36
2024-01-06T07:19:02.820Z,1003.41
2024-01-06T07:20:02.622Z,1003.41
2024-01-06T07:21:01.659Z,1003.43
2024-01-06T07:22:03.713Z,1003.43
2024-01-06T07:23:01.600Z,1003.42
2024-01-06T07:24:01.611Z,1003.41
2024-01-06T07:25:01.578Z,1003.46
2024-01-06T07:26:01.568Z,1003.43
2024-01-06T07:27:01.665Z,1003.45
2024-01-06T07:28:01.537Z,1003.47
2024-01-06T07:29:01.510Z,1003.49
2024-01-06T07:30:01.493Z,1003.51
2024-01-06T07:31:01.584Z,1003.45
2024-01-06T07:32:01.493Z,1003.50
2024-01-06T07:33:01.520Z,1003.53
2024-01-06T07:34:01.570Z,1003.56
2024-01-06T07:35:05.120Z,1003.54
2024-01-06T07:36:02.564Z,1003.55
2024-01-06T07:37:01.480Z,1003.59
2024-01-06T07:38:01.392Z,1003.60
2024-01-06T07:39:01.428Z,1003.57
2024-01-06T07:40:01.362Z,1003.64
2024-01-06T07:41:01.407Z,1003.64
2024-01-06T07:42:01.339Z,1003.61
2024-01-06T07:43:01.374Z,1003.61
2024-01-06T07:44:01.336Z,1003.69
2024-01-06T07:45:01.418Z,1003.70
2024-01-06T07:46:01.350Z,1003.71
2024-01-06T07:47:01.290Z,1003.73
2024-01-06T07:48:01.352Z,1003.76
2024-01-06T07:49:01.436Z,1003.73
2024-01-06T07:50:01.285Z,1003.79
2024-01-06T07:51:01.270Z,1003.80
2024-01-06T07:52:01.318Z,1003.78
2024-01-06T07:53:01.217Z,1003.79
2024-01-06T07:54:01.197Z,1003.77
2024-01-06T07:55:01.253Z,1003.82
2024-01-06T07:56:01.171Z,1003.81
2024-01-06T07:57:01.156Z,1003.82
2024-01-06T07:58:01.202Z,1003.85
2024-01-06T07:59:01.094Z,1003.90
2024-01-06T08:00:03.278Z,1003.91
2024-01-06T08:01:01.267Z,1003.90
2024-01-06T08:02:01.075Z,1003.95
2024-01-06T08:03:01.068Z,1003.97
2024-01-06T08:04:01.408Z,1003.99
2024-01-06T08:05:01.076Z,1004.07
2024-01-06T08:06:01.118Z,1004.08
2024-01-06T08:07:01.091Z,1004.07
2024-01-06T08:08:01.061Z,1004.09
2024-01-06T08:09:01.126Z,1004.14
2024-01-06T08:10:01.040Z,1004.10
2024-01-06T08:11:00.945Z,1004.17
2024-01-06T08:12:00.959Z,1004.17
2024-01-06T08:13:00.938Z,1004.19
2024-01-06T08:14:00.913Z,1004.20
2024-01-06T08:15:00.944Z,1004.21
2024-01-06T08:16:00.932Z,1004.22
2024-01-06T08:17:00.883Z,1004.23
2024-01-06T08:19:00.927Z,1004.22
2024-01-06T08:20:00.826Z,1004.30
2024-01-06T08:21:00.843Z,1004.32
2024-01-06T08:22:00.866Z,1004.33
2024-01-06T08:23:00.782Z,1004.36
2024-01-06T08:24:00.818Z,1004.38
2024-01-06T08:25:00.891Z,1004.37
2024-01-06T08:26:01.703Z,1004.39
2024-01-06T08:27:00.786Z,1004.45
2024-01-06T08:28:00.808Z,1004.45
2024-01-06T08:29:00.701Z,1004.50
2024-01-06T08:30:00.734Z,1004.53
2024-01-06T08:31:00.751Z,1004.57
2024-01-06T08:32:00.768Z,1004.52
2024-01-06T08:33:01.003Z,1004.60
2024-01-06T08:34:00.773Z,1004.60
2024-01-06T08:35:00.723Z,1004.62
2024-01-06T08:36:00.634Z,1004.66
2024-01-06T08:37:00.685Z,1004.60
2024-01-06T08:38:00.589Z,1004.65
2024-01-06T08:39:00.602Z,1004.69
2024-01-06T08:40:00.774Z,1004.71
2024-01-06T08:41:00.541Z,1004.80
2024-01-06T08:42:02.223Z,1004.78
2024-01-06T08:43:00.556Z,1004.81
2024-01-06T08:44:00.525Z,1004.80
2024-01-06T08:45:00.568Z,1004.80
2024-01-06T08:46:00.545Z,1004.78
2024-01-06T08:47:00.481Z,1004.77
2024-01-06T08:48:00.562Z,1004.82
2024-01-06T08:49:00.727Z,1004.86
2024-01-06T08:50:01.413Z,1004.85
2024-01-06T08:51:00.479Z,1004.89
2024-01-06T08:52:00.480Z,1004.91
2024-01-06T08:53:00.412Z,1004.95
2024-01-06T08:54:00.375Z,1004.93
2024-01-06T08:55:00.463Z,1004.94
2024-01-06T08:56:00.330Z,1004.99
2024-01-06T08:57:00.352Z,1005.00
2024-01-06T08:58:00.449Z,1005.00
2024-01-06T08:59:00.344Z,1005.01
2024-01-06T09:00:00.531Z,1005.06
2024-01-06T09:01:00.427Z,1005.07
2024-01-06T09:02:00.310Z,1005.07
2024-01-06T09:03:00.309Z,1005.09
2024-01-06T09:04:00.386Z,1005.15
2024-01-06T09:05:00.329Z,1005.17
2024-01-06T09:06:00.224Z,1005.16
2024-01-06T09:07:00.267Z,1005.16
2024-01-06T09:08:00.213Z,1005.21
2024-01-06T09:09:00.430Z,1005.22
2024-01-06T09:10:00.316Z,1005.25
2024-01-06T09:11:00.892Z,1005.23
2024-01-06T09:12:00.118Z,1005.29
2024-01-06T09:13:00.174Z,1005.29
2024-01-06T09:14:00.100Z,1005.34
2024-01-06T09:15:00.369Z,1005.34
2024-01-06T09:16:02.735Z,1005.35
2024-01-06T09:17:00.066Z,1005.36
2024-01-06T09:18:00.390Z,1005.38
2024-01-06T09:19:00.184Z,1005.39
2024-01-06T09:20:00.042Z,1005.45
2024-01-06T09:21:01.024Z,1005.47
2024-01-06T09:22:00.065Z,1005.49
2024-01-06T09:23:00.001Z,1005.48
2024-01-06T09:23:59.952Z,1005.54
2024-01-06T09:24:59.986Z,1005.55
2024-01-06T09:25:59.925Z,1005.52
2024-01-06T09:27:00.046Z,1005.64
2024-01-06T09:28:00.145Z,1005.63
2024-01-06T09:28:59.923Z,1005.62
2024-01-06T09:29:59.910Z,1005.69
2024-01-06T09:30:59.995Z,1005.69
2024-01-06T09:31:59.874Z,1005.72
2024-01-06T09:32:59.885Z,1005.74
2024-01-06T09:33:59.908Z,1005.74
2024-01-06T09:34:59.905Z,1005.81
2024-01-06T09:35:59.792Z,1005.77
2024-01-06T09:36:59.899Z,1005.80
2024-01-06T09:37:59.794Z,1005.81
2024-01-06T09:38:59.807Z,1005.82
2024-01-06T09:39:59.820Z,1005.82
2024-01-06T09:40:59.799Z,1005.83
2024-01-06T09:41:59.812Z,1005.81
2024-01-06T09:42:59.751Z,1005.81
2024-01-06T09:43:59.707Z,1005.83
2024-01-06T09:44:59.832Z,1005.81
2024-01-06T09:45:59.948Z,1005.89
2024-01-06T09:46:59.659Z,1005.91
2024-01-06T09:47:59.722Z,1005.93
2024-01-06T09:49:00.009Z,1005.93
2024-01-06T09:49:59.701Z,1005.88
2024-01-06T09:50:59.724Z,1005.91
2024-01-06T09:51:59.748Z,1006.00
2024-01-06T09:52:59.568Z,1005.98
2024-01-06T09:53:59.554Z,1005.95
2024-01-06T09:54:59.624Z,1005.95
2024-01-06T09:55:59.523Z,1006.01
2024-01-06T09:56:59.563Z,1006.03
2024-01-06T09:57:59.836Z,1006.03
2024-01-06T09:58:59.551Z,1006.03
2024-01-06T09:59:59.475Z,1006.01
2024-01-06T10:00:59.604Z,1006.01
2024-01-06T10:01:59.465Z,1006.02
2024-01-06T10:02:59.519Z,1006.04
2024-01-06T10:03:59.522Z,1006.07
2024-01-06T10:04:59.482Z,1006.10
2024-01-06T10:05:59.466Z,1006.06
2024-01-06T10:06:59.429Z,1006.10
2024-01-06T10:08:00.131Z,1006.10
2024-01-06T10:09:00.385Z,1006.12
2024-01-06T10:09:59.405Z,1006.14
2024-01-06T10:10:59.338Z,1006.17
2024-01-06T10:11:59.365Z,1006.21
2024-01-06T10:12:59.423Z,1006.20
2024-01-06T10:13:59.303Z,1006.26
2024-01-06T10:14:59.409Z,1006.25
2024-01-06T10:15:59.341Z,1006.29
2024-01-06T10:16:59.268Z,1006.22
2024-01-06T10:17:59.386Z,1006.25
2024-01-06T10:18:59.580Z,1006.31
2024-01-06T10:19:59.321Z,1006.30
2024-01-06T10:20:59.268Z,1006.34
2024-01-06T10:21:59.248Z,1006.34
2024-01-06T10:22:59.197Z,1006.30
2024-01-06T10:23:59.193Z,1006.29
2024-01-06T10:24:59.199Z,1006.31
2024-01-06T10:26:01.165Z,1006.30
2024-01-06T10:26:59.156Z,1006.40
2024-01-06T10:27:59.161Z,1006.35
2024-01-06T10:28:59.119Z,1006.37
2024-01-06T10:29:59.811Z,1006.35
2024-01-06T10:30:59.226Z,1006.37
2024-01-06T10:31:59.128Z,1006.36
2024-01-06T10:32:59.243Z,1006.41
2024-01-06T10:33:59.123Z,1006.38
2024-01-06T10:34:59.044Z,1006.41
2024-01-06T10:35:59.017Z,1006.43
2024-01-06T10:36:59.058Z,1006.45
2024-01-06T10:37:58.992Z,1006.48
2024-01-06T10:38:59.007Z,1006.43
2024-01-06T10:39:58.981Z,1006.48
2024-01-06T10:40:58.950Z,1006.41
2024-01-06T10:41:58.905Z,1006.47
2024-01-06T10:42:59.136Z,1006.46
2024-01-06T10:43:58.894Z,1006.43
2024-01-06T10:44:58.903Z,1006.44
2024-01-06T10:45:59.225Z,1006.41
2024-01-06T10:46:58.851Z,1006.46
2024-01-06T10:47:58.953Z,1006.48
2024-01-06T10:48:58.888Z,1006.44
2024-01-06T10:50:01.419Z,1006.49
2024-01-06T10:50:58.846Z,1006.50
2024-01-06T10:51:58.869Z,1006.52
2024-01-06T10:52:58.809Z,1006.55
2024-01-06T10:53:58.768Z,1006.54
2024-01-06T10:54:58.789Z,1006.57
2024-01-06T10:55:58.744Z,1006.55
2024-01-06T10:56:58.762Z,1006.60
2024-01-06T10:57:58.738Z,1006.57
2024-01-06T10:58:58.686Z,1006.61
2024-01-06T10:59:58.666Z,1006.56
2024-01-06T11:00:58.792Z,1006.62
2024-01-06T11:01:58.660Z,1006.62
2024-01-06T11:02:58.700Z,1006.62
2024-01-06T11:03:58.711Z,1006.60
2024-01-06T11:04:58.608Z,1006.62
2024-01-06T11:05:58.654Z,1006.62
2024-01-06T11:06:58.651Z,1006.63
2024-01-06T11:07:58.566Z,1006.59
2024-01-06T11:08:58.622Z,1006.63
2024-01-06T11:09:58.663Z,1006.60
2024-01-06T11:10:58.554Z,1006.64
2024-01-06T11:11:58.510Z,1006.69
2024-01-06T11:12:58.565Z,1006.67
2024-01-06T11:13:58.490Z,1006.68
2024-01-06T11:14:58.505Z,1006.75
2024-01-06T11:15:58.546Z,1006.71
2024-01-06T11:16:58.451Z,1006.73
2024-01-06T11:17:58.522Z,1006.74
2024-01-06T11:18:58.480Z,1006.67
2024-01-06T11:19:58.692Z,1006.77
2024-01-06T11:20:58.471Z,1006.76
2024-01-06T11:21:58.512Z,1006.73
2024-01-06T11:22:58.383Z,1006.75
2024-01-06T11:23:58.376Z,1006.75
2024-01-06T11:24:58.596Z,1006.79
2024-01-06T11:25:59.025Z,1006.78
2024-01-06T11:26:58.338Z,1006.78
2024-01-06T11:27:58.517Z,1006.83
2024-01-06T11:28:58.317Z,1006.81
2024-01-06T11:29:58.276Z,1006.81
2024-01-06T11:30:58.348Z,1006.82
2024-01-06T11:31:58.423Z,1006.78
2024-01-06T11:32:58.322Z,1006.75
2024-01-06T11:33:58.275Z,1006.76
2024-01-06T11:34:58.228Z,1006.75
2024-01-06T11:35:58.192Z,1006.80
2024-01-06T11:36:58.229Z,1006.82
2024-01-06T11:37:58.291Z,1006.86
2024-01-06T11:38:58.228Z,1006.80
2024-01-06T11:39:58.241Z,1006.80
2024-01-06T11:40:58.166Z,1006.80
2024-01-06T11:41:59.079Z,1006.82
2024-01-06T11:42:58.167Z,1006.78
2024-01-06T11:43:58.102Z,1006.81
2024-01-06T11:44:58.134Z,1006.79
2024-01-06T11:45:58.119Z,1006.83
2024-01-06T11:46:58.090Z,1006.83
2024-01-06T11:47:58.157Z,1006.80
2024-01-06T11:48:58.182Z,1006.83
2024-01-06T11:49:58.052Z,1006.79
2024-01-06T11:50:58.070Z,1006.82
2024-01-06T11:51:58.007Z,1006.81
2024-01-06T11:52:57.980Z,1006.79
2024-01-06T11:53:57.965Z,1006.82
2024-01-06T11:54:57.969Z,1006.82
2024-01-06T11:55:57.971Z,1006.79
2024-01-06T11:56:57.989Z,1006.82
2024-01-06T11:57:57.990Z,1006.75
2024-01-06T11:58:57.942Z,1006.77
2024-01-06T11:59:57.889Z,1006.73
2024-01-06T12:00:58.140Z,1006.80
2024-01-06T12:01:57.892Z,1006.73
2024-01-06T12:02:57.878Z,1006.73
2024-01-06T12:03:59.025Z,1006.77
2024-01-06T12:04:57.895Z,1006.81
2024-01-06T12:05:57.890Z,1006.78
2024-01-06T12:06:58.582Z,1006.76
2024-01-06T12:07:57.826Z,1006.84
2024-01-06T12:08:57.828Z,1006.81
2024-01-06T12:09:57.916Z,1006.81
2024-01-06T12:10:57.784Z,1006.79
2024-01-06T12:11:57.750Z,1006.82
2024-01-06T12:12:57.903Z,1006.82